Nashville, TN (37221)

3:40 PM CDT on August 29, 2015 (GMT -0500)
Horseshoe Bend | | Change Station
CLOSE
Current Station
Personal Weather Station
Location: Nashville, TN
Elevation: 571 ft
Nearby Weather Stations

Elev 571 ft 36.05 °N, 86.93 °W | Updated 5 seconds ago

Overcast
Overcast
85.6 °F
Feels Like 93 °F
N
2.2
Wind Variable Wind from South

Today
High -- | Low -- °F
--% Chance of Precip.
Yesterday
High -- | Low -- °F
Precip. -- in
6:17 AM 7:19 PM
Full, 100% visible
Pressure 30.06 in
Visibility 10.0 miles
Clouds Scattered Clouds 2900 ft
Mostly Cloudy 3900 ft
Mostly Cloudy 18000 ft
Heat Index 93 °F
Dew Point 74 °F
Humidity 68%
Rainfall 0.00 in
Snow Depth Not available.
UV 4 out of 12
Pollen 10.00 out of 12
Air Quality Not available.
Flu Activity Not available.
METAR KBNA 291953Z 17010KT 10SM R02L/2600VP6000FT -RA SCT029 BKN039 BKN180 26/20 A3008 RMK AO2 RAB40 SLP180 P0010 T02560200
Pressure 30.06 in
Visibility 10.0 miles
Clouds Scattered Clouds 2900 ft
Mostly Cloudy 3900 ft
Mostly Cloudy 18000 ft
Heat Index 93 °F
Dew Point 74 °F
Humidity 68%
Rainfall 0.00 in
Snow Depth Not available.
UV 4 out of 12
Pollen 10.00 out of 12
Air Quality Not available.
Flu Activity Not available.
METAR KBNA 291953Z 17010KT 10SM R02L/2600VP6000FT -RA SCT029 BKN039 BKN180 26/20 A3008 RMK AO2 RAB40 SLP180 P0010 T02560200

10-Day Weather Forecast

×

Almanac

Astronomy

Aug. 29, 2015 Rise Set
Actual Time
Civil Twilight
Nautical Twilight
Astronomical Twilight
Moon
Length of Visible Light
Length of Day
Tomorrow will be .
, % of the Moon is Illuminated

Today's Extremes

State Highs State Lows

Community

WunderPhotos

Upload Photos

1,850,793 photos uploaded!

WunderBlogs® & News

Nearby

Air Quality

  Air Quality AQ Index Pollutant
Not available.

Snow Depth

Station Depth Elevation

Earthquake Activity

City Distance Mag. Time & Date
Minimum magnitude displayed is 2.5.

Coastal Water Temperatures

Place Temperature

Stations

Nearby Weather Stations

Station Location Temp. Windchill Dew Point Humidity Wind Precip. Elev Updated Type